This is the latest recevied weather packets stored in our database for station/object G0TGD-10. If no packets are shown the sender has not sent any weather packets the latest 10 day(s).
| Time | Temp. | Humidity | Pressure | Rain* | Wind** | Luminosity | Snow |
|---|---|---|---|---|---|---|---|
| 1778063787 | 15° C | 60% | 1014.6 hPa | - | - | - | - |
| 1778062887 | 17.22° C | 57% | 1014.5 hPa | - | - | - | - |
| 1778061987 | 21.67° C | 54% | 1014.4 hPa | - | - | - | - |
| 1778061087 | 19.44° C | 56% | 1014.5 hPa | - | - | - | - |
| 1778060187 | 18.33° C | 58% | 1014.6 hPa | - | - | - | - |
| 1778059287 | 18.89° C | 56% | 1014.5 hPa | - | - | - | - |
| 1778058387 | 17.78° C | 59% | 1014.6 hPa | - | - | - | - |
| 1778057487 | 17.78° C | 61% | 1014.8 hPa | - | - | - | - |
| 1778056587 | 15.56° C | 64% | 1014.9 hPa | - | - | - | - |
| 1778055687 | 11.67° C | 68% | 1015.1 hPa | - | - | - | - |
| 1778054787 | 8.89° C | 69% | 1015.1 hPa | - | - | - | - |
| 1778053887 | 8.33° C | 68% | 1015.1 hPa | - | - | - | - |
| 1778052986 | 8.33° C | 69% | 1015.1 hPa | - | - | - | - |
| 1778052086 | 7.78° C | 69% | 1015.1 hPa | - | - | - | - |
| 1778051186 | 7.78° C | 69% | 1014.9 hPa | - | - | - | - |
| 1778050286 | 7.22° C | 70% | 1014.8 hPa | - | - | - | - |
| 1778049386 | 6.67° C | 70% | 1014.6 hPa | - | - | - | - |
| 1778048486 | 5.56° C | 70% | 1014.6 hPa | - | - | - | - |
| 1778047586 | 5.56° C | 70% | 1014.5 hPa | - | - | - | - |
| 1778046686 | 5° C | 70% | 1014.5 hPa | - | - | - | - |
| 1778045786 | 5° C | 70% | 1014.5 hPa | - | - | - | - |
| 1778044886 | 4.44° C | 70% | 1014.4 hPa | - | - | - | - |
| 1778043985 | 4.44° C | 71% | 1014.4 hPa | - | - | - | - |
| 1778043085 | 3.89° C | 71% | 1014.4 hPa | - | - | - | - |
| 1778042185 | 3.89° C | 70% | 1014.4 hPa | - | - | - | - |
* Rain since midnight (hover to see other rain measurements)
** Current wind speed in m/s (hover to see current wind gust speed)